Witamy     NOTAM     FEEDBACK     Informacje     Wydarzenia     O nas      FIR Warszawa      Kontrolerzy     Piloci     Lotniska     Pliki     Linki     Forum    

Aktualna pogoda

METAR

EPBY 191030Z 30009KT 9999 -RA FEW010 SCT019 19/18 Q1011
EPGD 191030Z 29010KT 9999 FEW020 23/20 Q1011
EPKK 191030Z 29009KT 9999 BKN008 19/17 Q1012
EPKT 191030Z 30009KT 280V340 9999 OVC004 18/17 Q1012
EPLB 191030Z 29012KT 9999 SCT020 BKN025 26/21 Q1007
EPLL 191030Z 28010KT 250V310 9999 FEW007 OVC010 19/18 Q1011
EPMO 191030Z 28009KT CAVOK 25/19 Q1008
EPPO 191030Z 32005KT 9999 BKN009 20/18 Q1013
EPRZ 191030Z 27009KT 9999 FEW012TCU SCT016 23/19 Q1009
EPSC 191030Z 31013KT 9999 SCT008 BKN010 19/18 Q1015
EPSY 191030Z 34008KT 300V020 9999 FEW038TCU 27/19 Q1008
EPWA 191030Z 31008KT 9999 FEW033 24/19 Q1008 NOSIG
EPWR 191030Z 31016KT 9999 BKN010 19/17 Q1014
EPZG 191030Z 30010KT 260V330 2000 -RA BR SCT006 BKN013 OVC020 19/18 Q1014

METAR - MIL

EPCE 191030Z 26006KT 9999 -RA SCT004 BKN059 20/20 Q1012 RMK 201 097 7/3 =
EPDA 191030Z 33008KT 290V020 9999 FEW079 SCT119 BKN181 20/18 Q1013 RMK 203 08
EPDE 191030Z 29010KT 9999 BKN020 24/20 Q1008 RMK 243 076 5/5=
EPIR 191030Z 30010KT 8000 SCT050 BKN090 20/18 Q1011 RMK 199 090 7/3=915SAPL9
EPKS 191030Z 33006KT 9999 SCT009 OVC015 20/17 Q1013 RMK 197 086 8/4=
EPLY 191030Z 29010KT 9999 SCT011 BKN014 22/19 Q1011 RMK 216 084 7/4=
EPMB 191030Z 34010KT 9999 SCT080 BKN100 26/17 Q1010 RMK 258 059 5/3=
EPMI 191030Z 34012KT 9999 OVC011 20/18 Q1014 RMK 204 085 8/8=
EPMM 191030Z 30008KT 9999 FEW033TCU SCT200 27/20 Q1008 RMK 265 066 3/2 =
EPOK 191030Z 33009KT 9999 BKN171 24/18 Q1011 RMK 241 068 6/6 =
EPPR 191030Z 29008KT 9999 SCT066 BKN113 24/20 Q1010 RMK 236 079 6/3=
EPPW 191030Z 32006KT 9999 BKN009 OVC014 20/18 Q1012 RMK 204 089 8/6 =
EPRA 191030Z 31010KT 8000 -RA SCT014 BKN019 21/21 Q1009
EPSN 191030Z 32010KT 9999 SCT009 BKN014 20/18 Q1014 RMK 201 088 7/3 =
EPTM 191030Z 32008KT 6000 -RA BKN005 OVC011 19/18 Q1011 RMK 191 091 8/6=

 

 
© 2001 Polish VACC
[logowanie]